Time;durP1;ratioP1;P1;durP2;ratioP2;P2;SDS_P1;SDS_P2;PMS_P1;PMS_P2;Temp;Humidity;BMP_temperature;BMP_pressure;BME280_temperature;BME280_humidity;BME280_pressure;Samples;Min_cycle;Max_cycle;Signal;HPM_P1;HPM_P2
2022/10/19 00:00:19;;;;;;;13.03;7.97;;;;;;;9.75;67.94;95470.63;5092487;28;20442;-78
2022/10/19 00:02:46;;;;;;;7.60;6.70;;;;;;;9.64;68.17;95462.72;5092322;28;20451;-77
2022/10/19 00:05:13;;;;;;;8.93;8.00;;;;;;;9.72;68.59;95460.38;5092624;28;20451;-78
2022/10/19 00:07:40;;;;;;;11.20;7.70;;;;;;;9.56;68.28;95458.03;5092439;28;20471;-77
2022/10/19 00:10:07;;;;;;;9.90;6.97;;;;;;;9.43;70.08;95451.97;5092533;28;20448;-77
2022/10/19 00:12:35;;;;;;;12.47;8.30;;;;;;;9.35;69.80;95450.88;5092756;28;20443;-77
2022/10/19 00:15:02;;;;;;;9.33;7.60;;;;;;;9.36;69.46;95453.38;5039975;28;20451;-77
2022/10/19 00:17:29;;;;;;;10.53;7.73;;;;;;;9.36;69.42;95448.13;5092783;28;20440;-77
2022/10/19 00:19:56;;;;;;;10.87;8.20;;;;;;;9.35;69.76;95456.09;5092353;28;20443;-77
2022/10/19 00:22:22;;;;;;;11.00;7.47;;;;;;;9.42;69.09;95446.84;5092205;28;20447;-77
2022/10/19 00:24:49;;;;;;;13.53;7.33;;;;;;;9.39;69.02;95447.91;5092208;28;20440;-77
2022/10/19 00:27:16;;;;;;;11.33;7.50;;;;;;;9.50;68.68;95447.13;5092109;28;20489;-77
2022/10/19 00:29:44;;;;;;;8.13;7.33;;;;;;;9.47;68.63;95444.75;5092536;28;20445;-77
2022/10/19 00:32:11;;;;;;;8.23;7.03;;;;;;;9.49;68.91;95438.44;5091853;28;20496;-77
2022/10/19 00:34:38;;;;;;;12.50;7.63;;;;;;;9.50;68.75;95436.66;5092208;28;20453;-77
2022/10/19 00:37:05;;;;;;;8.57;7.43;;;;;;;9.48;68.49;95422.84;5092384;28;20553;-77
2022/10/19 00:39:31;;;;;;;10.27;7.30;;;;;;;9.43;68.55;95427.56;5092460;28;20509;-77
2022/10/19 00:41:58;;;;;;;10.20;7.43;;;;;;;9.39;68.71;95415.66;5092239;28;20447;-77
2022/10/19 00:45:05;;;;;;;8.97;7.37;;;;;;;9.31;68.61;95409.19;5092060;28;20448;-77
2022/10/19 00:47:32;;;;;;;8.47;7.67;;;;;;;9.14;69.81;95412.16;5092391;28;20448;-78
2022/10/19 00:49:59;;;;;;;9.43;7.27;;;;;;;9.03;70.49;95409.47;5092034;28;20451;-78
2022/10/19 00:52:27;;;;;;;15.50;8.27;;;;;;;9.06;69.96;95403.19;5092324;28;20471;-77
2022/10/19 00:54:56;;;;;;;11.23;6.50;;;;;;;9.10;70.19;95400.22;5092097;28;20498;-77
2022/10/19 00:57:26;;;;;;;11.47;8.40;;;;;;;9.00;70.80;95396.59;5039831;28;20813;-77
2022/10/19 00:59:53;;;;;;;10.60;8.20;;;;;;;8.97;70.81;95395.03;5091900;28;20444;-77
2022/10/19 01:02:21;;;;;;;8.70;7.30;;;;;;;9.03;70.89;95388.53;5039648;28;20488;-77
2022/10/19 01:04:51;;;;;;;12.43;8.00;;;;;;;9.04;70.90;95384.97;5091857;28;20494;-77
2022/10/19 01:07:19;;;;;;;12.27;7.90;;;;;;;9.01;70.92;95385.19;5092045;28;20877;-77
2022/10/19 01:09:46;;;;;;;9.70;7.60;;;;;;;8.96;71.12;95388.13;5039332;28;20484;-77
2022/10/19 01:12:24;;;;;;;9.27;7.73;;;;;;;8.90;71.84;95377.22;5055770;28;20436;-78
2022/10/19 01:15:05;;;;;;;11.73;7.73;;;;;;;8.87;71.91;95375.66;5091655;28;20483;-77
2022/10/19 01:17:44;;;;;;;12.00;7.77;;;;;;;8.87;71.76;95372.22;5091714;28;20450;-77
2022/10/19 01:20:47;;;;;;;8.10;7.23;;;;;;;8.82;71.88;95376.94;5092016;28;20443;-77
2022/10/19 01:23:33;;;;;;;10.40;7.50;;;;;;;8.87;71.93;95367.81;4989877;28;20474;-77
2022/10/19 01:26:14;;;;;;;10.63;7.50;;;;;;;8.92;71.07;95364.88;4989724;28;20852;-77
2022/10/19 01:28:47;;;;;;;9.03;7.13;;;;;;;8.93;70.95;95369.16;4989732;28;21002;-77
2022/10/19 01:31:24;;;;;;;9.53;7.07;;;;;;;8.91;70.88;95365.81;4989682;28;20483;-77
2022/10/19 01:33:57;;;;;;;12.63;6.43;;;;;;;8.93;70.70;95358.69;4989983;28;20441;-77
2022/10/19 01:36:32;;;;;;;9.37;6.87;;;;;;;8.89;70.84;95352.84;4989878;28;20922;-77
2022/10/19 01:39:05;;;;;;;11.67;6.77;;;;;;;8.85;71.25;95355.78;4989643;28;20506;-76
2022/10/19 01:41:40;;;;;;;9.87;7.30;;;;;;;8.86;71.33;95353.06;4941571;28;20450;-77
2022/10/19 01:44:15;;;;;;;7.80;6.97;;;;;;;8.84;71.20;95357.56;4992555;28;20443;-77
2022/10/19 01:46:45;;;;;;;7.67;6.40;;;;;;;8.78;71.19;95352.78;4993418;28;20887;-77
2022/10/19 01:49:19;;;;;;;7.73;7.03;;;;;;;8.73;71.75;95349.66;4993350;28;20503;-78
2022/10/19 01:51:51;;;;;;;13.30;7.10;;;;;;;8.70;71.58;95355.09;4992970;28;20458;-78
2022/10/19 01:54:22;;;;;;;8.23;7.20;;;;;;;8.70;71.68;95349.88;4992795;28;20877;-77
2022/10/19 01:56:50;;;;;;;9.90;7.10;;;;;;;8.59;71.99;95350.59;4993253;28;20531;-77
2022/10/19 01:59:20;;;;;;;10.33;6.30;;;;;;;8.59;72.58;95347.97;4995367;28;20808;-77
2022/10/19 02:01:51;;;;;;;9.20;7.70;;;;;;;8.57;72.71;95349.03;5094806;28;20443;-77
2022/10/19 02:04:21;;;;;;;10.10;8.00;;;;;;;8.47;73.12;95346.22;5094459;28;20447;-78
2022/10/19 02:06:49;;;;;;;7.70;6.90;;;;;;;8.53;72.86;95353.66;5095304;28;20451;-78
2022/10/19 02:09:18;;;;;;;7.37;6.67;;;;;;;8.50;73.39;95348.63;5094813;28;20479;-77
2022/10/19 02:11:47;;;;;;;8.97;7.00;;;;;;;8.46;72.99;95347.19;5094471;28;20443;-77
2022/10/19 02:14:16;;;;;;;8.50;7.50;;;;;;;8.48;72.82;95344.44;5043188;28;21005;-77
2022/10/19 02:16:50;;;;;;;12.83;7.90;;;;;;;8.53;72.28;95344.97;5094868;28;20439;-77
2022/10/19 02:19:19;;;;;;;9.90;7.57;;;;;;;8.50;72.47;95353.03;5094962;28;20447;-77
2022/10/19 02:21:46;;;;;;;7.50;6.70;;;;;;;8.52;72.09;95348.53;5094486;28;20443;-77
2022/10/19 02:24:12;;;;;;;8.50;6.47;;;;;;;8.53;72.03;95342.34;5094518;28;20925;-77
2022/10/19 02:26:40;;;;;;;8.30;7.10;;;;;;;8.48;72.10;95345.28;5094428;28;20508;-77
2022/10/19 02:29:09;;;;;;;9.77;6.93;;;;;;;8.49;71.77;95341.72;5094604;28;20487;-77
2022/10/19 02:31:36;;;;;;;9.23;6.80;;;;;;;8.56;72.32;95332.50;5094228;28;20435;-77
2022/10/19 02:34:04;;;;;;;10.47;7.47;;;;;;;8.63;71.90;95338.13;5094559;28;20439;-77
2022/10/19 02:36:31;;;;;;;8.30;6.73;;;;;;;8.64;71.88;95335.41;5094311;28;20446;-77
2022/10/19 02:38:58;;;;;;;8.90;6.90;;;;;;;8.64;71.38;95329.34;5094003;28;20500;-77
2022/10/19 02:41:31;;;;;;;6.97;6.23;;;;;;;8.54;71.66;95331.78;5094623;28;20439;-77
2022/10/19 02:44:04;;;;;;;9.10;6.87;;;;;;;8.46;71.56;95338.50;5094119;28;20444;-77
2022/10/19 02:46:37;;;;;;;9.63;7.37;;;;;;;8.43;71.86;95325.63;5094457;28;20436;-78
2022/10/19 02:49:09;;;;;;;9.13;6.50;;;;;;;8.40;71.53;95326.69;5094032;28;20851;-77
2022/10/19 02:51:37;;;;;;;7.57;6.87;;;;;;;8.32;71.47;95321.09;5093642;28;20438;-77
2022/10/19 02:54:07;;;;;;;8.30;6.00;;;;;;;8.28;71.34;95325.69;5093918;28;20447;-77
2022/10/19 02:56:35;;;;;;;8.13;6.67;;;;;;;8.22;71.64;95322.69;5093794;28;20500;-77
2022/10/19 02:59:03;;;;;;;10.00;5.97;;;;;;;8.21;71.54;95321.84;5094107;28;20505;-77
2022/10/19 03:01:30;;;;;;;9.90;6.20;;;;;;;8.17;71.93;95317.78;5042571;28;20451;-77
2022/10/19 03:03:57;;;;;;;9.20;5.70;;;;;;;8.18;72.04;95318.59;5094147;28;20453;-76
2022/10/19 03:06:25;;;;;;;8.77;6.43;;;;;;;8.21;72.62;95318.41;5094005;28;20443;-77
2022/10/19 03:08:51;;;;;;;6.87;6.27;;;;;;;8.22;72.00;95320.06;5093961;28;20875;-77
2022/10/19 03:11:18;;;;;;;9.13;5.97;;;;;;;8.19;72.27;95322.91;5041833;28;20456;-78
2022/10/19 03:13:48;;;;;;;7.00;5.73;;;;;;;8.25;72.38;95325.09;5093375;28;20458;-77
2022/10/19 03:16:14;;;;;;;6.23;5.63;;;;;;;8.27;71.65;95328.41;5093365;28;20446;-77
2022/10/19 03:18:41;;;;;;;15.13;7.43;;;;;;;8.29;71.68;95334.38;5041203;28;20505;-77
2022/10/19 03:21:10;;;;;;;12.03;8.97;;;;;;;8.28;71.35;95340.56;5041339;28;20451;-77
2022/10/19 03:23:39;;;;;;;14.90;10.87;;;;;;;8.26;71.57;95332.81;5093409;28;20447;-77
2022/10/19 03:26:06;;;;;;;21.80;11.30;;;;;;;8.21;71.44;95341.91;5093347;28;20446;-77
2022/10/19 03:28:33;;;;;;;19.33;10.70;;;;;;;8.17;71.27;95345.69;5092869;28;20487;-77
2022/10/19 03:31:00;;;;;;;19.43;11.27;;;;;;;8.05;71.98;95337.72;5093078;28;20451;-77
2022/10/19 03:33:27;;;;;;;14.30;10.00;;;;;;;8.04;71.74;95338.66;5040658;28;20436;-77
2022/10/19 03:36:16;;;;;;;17.63;11.30;;;;;;;8.07;71.56;95335.84;5093386;28;20507;-77
2022/10/19 03:38:44;;;;;;;14.00;10.50;;;;;;;8.10;71.77;95334.00;5092763;28;20455;-77
2022/10/19 03:41:12;;;;;;;14.07;10.70;;;;;;;8.14;71.29;95336.28;5092980;28;20451;-77
2022/10/19 03:43:43;;;;;;;15.30;9.80;;;;;;;8.19;72.09;95333.34;5096226;28;20453;-77
2022/10/19 03:46:10;;;;;;;17.27;10.63;;;;;;;8.26;71.18;95329.38;5114433;28;20799;-77
2022/10/19 03:48:37;;;;;;;19.17;11.87;;;;;;;8.33;71.06;95328.00;5110145;28;20486;-77
2022/10/19 03:51:07;;;;;;;20.23;12.17;;;;;;;9.25;92.29;95320.59;5092828;28;20550;-77
2022/10/19 03:53:35;;;;;;;21.70;10.73;;;;;;;9.08;76.80;95322.75;5094520;28;21009;-77
2022/10/19 03:56:05;;;;;;;16.30;11.27;;;;;;;9.05;71.85;95326.44;5094324;28;20501;-77
2022/10/19 03:58:36;;;;;;;17.40;9.93;;;;;;;8.98;70.22;95318.19;5056664;28;20436;-77
2022/10/19 04:01:07;;;;;;;12.93;7.80;;;;;;;8.91;69.41;95311.69;5093168;28;20447;-77
2022/10/19 04:03:34;;;;;;;13.07;7.23;;;;;;;8.85;68.84;95316.53;5093069;28;20448;-77
2022/10/19 04:06:06;;;;;;;13.57;8.07;;;;;;;8.73;68.73;95315.63;5092545;28;20448;-77
2022/10/19 04:08:33;;;;;;;6.10;5.50;;;;;;;8.55;69.30;95316.91;5093073;28;20455;-77
2022/10/19 04:11:01;;;;;;;7.20;5.80;;;;;;;8.37;69.82;95322.47;5093304;28;20436;-77
2022/10/19 04:13:30;;;;;;;9.00;6.13;;;;;;;8.28;70.64;95320.47;5093080;28;20539;-77
2022/10/19 04:15:58;;;;;;;6.43;5.83;;;;;;;8.24;70.35;95323.41;5096773;28;20474;-79
2022/10/19 04:18:24;;;;;;;9.67;6.17;;;;;;;9.15;94.76;95310.88;5109405;28;20468;-78
2022/10/19 04:20:56;;;;;;;6.73;5.73;;;;;;;9.05;76.53;95320.34;5113838;28;20455;-77
2022/10/19 04:23:24;;;;;;;8.10;5.90;;;;;;;8.88;70.67;95308.47;5109777;28;20889;-76
2022/10/19 04:25:51;;;;;;;5.80;5.20;;;;;;;8.72;69.70;95307.91;5092475;28;20972;-77
2022/10/19 04:28:18;;;;;;;9.90;6.63;;;;;;;8.55;69.22;95311.69;5101024;28;20791;-76
2022/10/19 04:30:46;;;;;;;7.70;5.73;;;;;;;8.50;69.19;95306.78;5105343;28;20911;-77
2022/10/19 04:33:12;;;;;;;25.80;10.70;;;;;;;7.96;70.83;95307.00;5098571;28;20462;-77
2022/10/19 04:35:39;;;;;;;20.03;12.03;;;;;;;7.44;73.54;95304.41;5103273;28;20469;-77
2022/10/19 04:38:06;;;;;;;22.90;13.03;;;;;;;7.45;73.19;95301.69;5099023;28;20446;-76
2022/10/19 04:40:35;;;;;;;27.53;13.00;;;;;;;7.37;74.72;95298.75;5112585;28;20452;-77
2022/10/19 04:43:01;;;;;;;22.23;11.57;;;;;;;7.17;75.33;95299.22;5093488;28;20786;-77
2022/10/19 04:45:28;;;;;;;31.03;13.87;;;;;;;7.16;75.81;95300.16;5092544;28;20943;-77
2022/10/19 04:47:57;;;;;;;22.03;13.30;;;;;;;7.12;76.61;95298.69;5040869;28;20941;-78
2022/10/19 04:50:24;;;;;;;33.08;15.45;;;;;;;7.18;76.27;95302.66;5092096;28;20448;-78
2022/10/19 04:52:50;;;;;;;34.83;19.23;;;;;;;7.21;75.18;95303.28;5092779;28;20229;-78
2022/10/19 04:55:17;;;;;;;33.17;15.57;;;;;;;7.23;75.52;95301.47;5093251;28;20455;-78
2022/10/19 04:57:44;;;;;;;31.60;16.47;;;;;;;7.27;74.83;95302.09;5092646;28;20933;-78
2022/10/19 05:00:12;;;;;;;38.47;15.70;;;;;;;7.35;74.91;95305.03;5093100;28;20450;-77
2022/10/19 05:02:43;;;;;;;30.13;15.60;;;;;;;7.34;74.84;95296.34;5092691;28;20575;-79
2022/10/19 05:05:11;;;;;;;34.80;14.83;;;;;;;7.46;75.25;95303.38;5092716;28;20438;-78
2022/10/19 05:07:38;;;;;;;29.43;15.50;;;;;;;7.66;75.13;95296.84;5093437;28;20511;-79
2022/10/19 05:10:06;;;;;;;28.00;16.13;;;;;;;8.53;73.86;95301.34;5092314;28;21024;-78
2022/10/19 05:12:34;;;;;;;31.83;15.13;;;;;;;9.73;68.78;95304.81;5092659;28;20440;-76
2022/10/19 05:15:01;;;;;;;35.23;14.07;;;;;;;11.11;64.70;95301.06;5092347;28;20470;-78
2022/10/19 05:17:30;;;;;;;26.50;13.53;;;;;;;12.13;58.94;95298.84;5093198;28;20897;-80
2022/10/19 05:19:56;;;;;;;21.17;11.33;;;;;;;13.27;56.62;95296.81;5096573;28;20455;-78
2022/10/19 05:22:24;;;;;;;21.73;12.07;;;;;;;14.30;52.85;95299.72;5096383;28;20444;-77
2022/10/19 05:24:51;;;;;;;26.20;12.67;;;;;;;15.19;49.81;95287.69;5096232;28;20975;-78
2022/10/19 05:27:18;;;;;;;18.77;11.17;;;;;;;15.80;46.59;95292.28;5096101;28;20980;-77
2022/10/19 05:29:45;;;;;;;22.13;8.40;;;;;;;16.10;44.81;95285.75;5095910;28;20492;-79
2022/10/19 05:32:12;;;;;;;10.80;8.70;;;;;;;16.22;44.53;95282.88;5096289;28;20468;-77
2022/10/19 05:34:38;;;;;;;9.03;7.40;;;;;;;16.30;44.38;95281.09;5043949;28;20474;-78
2022/10/19 05:37:05;;;;;;;10.00;8.10;;;;;;;16.40;43.06;95284.47;5096411;28;20454;-77
2022/10/19 05:39:33;;;;;;;11.23;7.73;;;;;;;16.76;43.13;95287.00;5096157;28;20439;-77
2022/10/19 05:42:00;;;;;;;11.33;7.53;;;;;;;17.28;41.65;95292.19;5060748;28;20447;-80
2022/10/19 05:44:27;;;;;;;14.03;7.10;;;;;;;17.57;40.74;95283.81;5096024;28;20530;-79
2022/10/19 05:46:54;;;;;;;7.80;6.37;;;;;;;17.72;40.17;95278.75;5095827;28;20451;-78
2022/10/19 05:49:22;;;;;;;9.37;7.30;;;;;;;17.80;39.95;95284.88;5096141;28;20486;-78
2022/10/19 05:51:49;;;;;;;10.63;7.00;;;;;;;17.95;39.73;95287.72;5095857;28;20814;-79
2022/10/19 05:54:16;;;;;;;8.93;6.67;;;;;;;18.13;39.79;95293.69;5096162;28;20447;-80
2022/10/19 05:56:45;;;;;;;10.70;7.20;;;;;;;18.11;39.53;95290.38;5095854;28;20447;-79
2022/10/19 05:59:16;;;;;;;19.07;11.93;;;;;;;18.10;39.34;95287.88;5096399;28;20474;-79
2022/10/19 06:01:42;;;;;;;20.07;13.80;;;;;;;17.72;40.08;95284.06;5095573;28;20846;-79
2022/10/19 06:04:09;;;;;;;18.53;13.03;;;;;;;17.54;40.50;95286.81;5095751;28;20854;-78
2022/10/19 06:06:36;;;;;;;20.53;12.83;;;;;;;17.35;40.76;95293.25;5095637;28;20436;-78
2022/10/19 06:09:03;;;;;;;12.33;10.33;;;;;;;17.24;41.11;95285.56;5095414;28;20463;-78
2022/10/19 06:11:33;;;;;;;26.40;11.50;;;;;;;16.74;41.92;95294.28;5095352;28;20776;-78
2022/10/19 06:14:03;;;;;;;12.97;10.60;;;;;;;16.19;42.98;95299.03;5095567;28;20458;-78
2022/10/19 06:16:31;;;;;;;23.53;12.27;;;;;;;15.74;44.09;95295.53;5095499;28;20979;-78
2022/10/19 06:18:59;;;;;;;14.40;10.90;;;;;;;15.65;45.33;95301.75;5095422;28;20441;-78
2022/10/19 06:21:28;;;;;;;17.97;11.83;;;;;;;15.75;45.33;95299.03;5095040;28;20452;-77
2022/10/19 06:23:57;;;;;;;16.87;11.37;;;;;;;15.70;45.74;95304.78;5095267;28;20512;-77
2022/10/19 06:26:24;;;;;;;21.30;12.37;;;;;;;15.70;44.85;95306.59;5106831;28;20446;-77
2022/10/19 06:28:54;;;;;;;31.93;13.00;;;;;;;15.67;44.92;95314.84;5114736;28;20591;-78
2022/10/19 06:31:22;;;;;;;28.13;13.10;;;;;;;15.72;45.30;95316.03;5114780;28;20490;-77
2022/10/19 06:33:49;;;;;;;18.60;11.67;;;;;;;15.84;45.65;95310.50;5114737;28;20454;-77
2022/10/19 06:36:18;;;;;;;23.37;14.27;;;;;;;15.77;45.46;95311.13;5114714;28;20925;-77
2022/10/19 06:38:46;;;;;;;21.63;13.30;;;;;;;15.95;45.78;95312.94;5114701;28;20906;-77
2022/10/19 06:41:13;;;;;;;21.20;14.00;;;;;;;15.84;45.06;95311.34;5114620;28;20459;-77
2022/10/19 06:43:41;;;;;;;21.20;11.00;;;;;;;15.79;45.64;95313.59;5115012;28;20955;-76
2022/10/19 06:46:11;;;;;;;18.37;9.47;;;;;;;15.81;46.51;95306.34;5114748;28;20508;-77
2022/10/19 06:48:40;;;;;;;21.30;9.03;;;;;;;15.73;45.36;95304.47;5062525;28;20530;-77
2022/10/19 06:51:07;;;;;;;9.57;8.53;;;;;;;15.81;44.99;95303.69;5114322;28;20493;-77
2022/10/19 06:53:34;;;;;;;13.37;8.00;;;;;;;15.96;44.55;95298.72;5114573;28;20468;-76
2022/10/19 06:56:02;;;;;;;9.33;6.60;;;;;;;15.78;44.07;95296.06;5114480;28;20950;-77
2022/10/19 06:58:29;;;;;;;12.17;8.30;;;;;;;15.74;44.73;95295.53;5114720;28;20821;-77
2022/10/19 07:00:57;;;;;;;11.23;7.97;;;;;;;15.74;44.42;95294.72;5114333;28;20440;-77
2022/10/19 07:03:24;;;;;;;17.90;8.83;;;;;;;15.63;44.17;95292.31;5114400;28;20903;-77
2022/10/19 07:05:56;;;;;;;15.60;7.33;;;;;;;15.41;45.57;95282.97;5115250;28;20447;-77
2022/10/19 07:08:24;;;;;;;9.70;6.90;;;;;;;15.33;45.48;95277.59;5114636;28;20504;-77
2022/10/19 07:10:51;;;;;;;9.00;7.20;;;;;;;15.21;45.89;95276.97;5114508;28;20483;-78
2022/10/19 07:13:18;;;;;;;10.07;6.90;;;;;;;15.00;46.87;95271.09;5114419;28;20446;-77
2022/10/19 07:15:45;;;;;;;14.00;6.43;;;;;;;14.97;46.94;95274.88;5113582;28;20472;-77
2022/10/19 07:18:12;;;;;;;11.90;6.90;;;;;;;14.84;47.37;95274.38;5077351;28;20455;-77
2022/10/19 07:20:39;;;;;;;7.53;6.30;;;;;;;14.87;46.96;95280.22;5113682;28;20458;-78
2022/10/19 07:23:08;;;;;;;12.60;6.30;;;;;;;15.00;47.09;95273.75;5113651;28;20790;-77
2022/10/19 07:25:36;;;;;;;11.40;6.90;;;;;;;15.08;46.78;95265.94;5113369;28;20443;-78
2022/10/19 07:28:04;;;;;;;12.73;6.70;;;;;;;15.26;46.43;95277.34;5113128;28;20443;-78
2022/10/19 07:30:30;;;;;;;11.43;6.50;;;;;;;15.41;46.11;95270.56;5113107;28;20489;-78
2022/10/19 07:32:57;;;;;;;10.97;7.10;;;;;;;15.52;46.11;95268.66;5113233;28;20788;-77
2022/10/19 07:35:24;;;;;;;8.63;7.10;;;;;;;15.59;46.30;95267.13;5113136;28;20937;-77
2022/10/19 07:37:51;;;;;;;7.47;6.13;;;;;;;15.75;44.70;95265.47;5113523;28;20921;-78
2022/10/19 07:40:19;;;;;;;7.20;6.50;;;;;;;15.85;45.02;95267.19;5112625;28;20806;-78
2022/10/19 07:42:46;;;;;;;8.40;6.07;;;;;;;15.86;43.54;95256.44;5113256;28;20449;-77
2022/10/19 07:45:12;;;;;;;8.70;6.33;;;;;;;15.86;43.88;95251.16;5061164;28;20445;-77
2022/10/19 07:47:39;;;;;;;8.10;5.90;;;;;;;15.87;43.66;95252.81;5113452;28;20508;-77
2022/10/19 07:50:06;;;;;;;13.30;6.47;;;;;;;15.75;43.96;95248.75;5113414;28;20482;-77
2022/10/19 07:52:33;;;;;;;15.47;6.60;;;;;;;15.52;43.87;95239.59;5113517;28;20466;-77
2022/10/19 07:55:00;;;;;;;9.03;7.73;;;;;;;15.45;44.43;95248.13;5113357;28;20447;-78
2022/10/19 07:57:28;;;;;;;9.53;7.27;;;;;;;15.53;45.19;95234.13;5113004;28;20446;-77
2022/10/19 07:59:54;;;;;;;10.63;7.87;;;;;;;15.61;45.21;95230.75;5112740;28;20439;-78
2022/10/19 08:02:21;;;;;;;11.23;7.90;;;;;;;15.77;44.93;95233.56;5113002;28;20450;-77
2022/10/19 08:04:48;;;;;;;18.93;8.47;;;;;;;15.96;45.09;95229.91;5112724;28;20443;-77
2022/10/19 08:07:15;;;;;;;12.77;9.70;;;;;;;16.17;43.79;95218.94;5112932;28;20568;-78
2022/10/19 08:09:41;;;;;;;13.80;9.07;;;;;;;16.29;43.33;95223.00;5112510;28;20438;-77
2022/10/19 08:12:08;;;;;;;20.37;8.07;;;;;;;16.28;43.35;95226.63;5112937;28;20803;-78
2022/10/19 08:14:36;;;;;;;20.70;9.40;;;;;;;16.08;43.53;95229.47;5112933;28;20454;-77
2022/10/19 08:17:03;;;;;;;39.67;21.03;;;;;;;16.21;43.79;95220.31;5113070;28;20443;-77
2022/10/19 08:19:30;;;;;;;27.53;14.23;;;;;;;16.38;44.02;95222.03;5112834;28;20465;-77
2022/10/19 08:21:57;;;;;;;9.40;8.00;;;;;;;16.38;43.60;95220.22;5112794;28;20472;-78
2022/10/19 08:24:23;;;;;;;16.00;9.40;;;;;;;16.35;43.88;95217.06;5112979;28;20444;-77
2022/10/19 08:26:50;;;;;;;18.47;10.50;;;;;;;16.47;43.66;95215.78;5112827;28;20465;-77
2022/10/19 08:29:19;;;;;;;17.73;10.30;;;;;;;16.45;44.11;95220.41;5112812;28;20450;-78
2022/10/19 08:31:49;;;;;;;18.47;10.83;;;;;;;16.51;43.87;95211.03;5112390;28;20483;-77
2022/10/19 08:34:16;;;;;;;12.80;10.30;;;;;;;16.70;43.38;95208.16;5112459;28;20778;-78
2022/10/19 08:36:43;;;;;;;18.87;11.40;;;;;;;16.84;43.49;95204.06;5112525;28;20443;-77
2022/10/19 08:39:11;;;;;;;18.27;10.70;;;;;;;16.95;43.10;95201.13;5112447;28;20456;-77
2022/10/19 08:41:52;;;;;;;23.30;10.80;;;;;;;17.15;42.58;95205.16;5112448;28;20508;-77
2022/10/19 08:44:44;;;;;;;19.27;12.17;;;;;;;17.39;42.49;95201.72;5076516;28;20466;-77
2022/10/19 08:47:26;;;;;;;22.90;13.20;;;;;;;17.58;41.95;95198.72;5049487;28;20469;-77
2022/10/19 08:49:52;;;;;;;21.80;11.27;;;;;;;17.71;41.45;95200.94;5049257;28;20453;-77
2022/10/19 08:52:22;;;;;;;25.43;11.77;;;;;;;17.94;41.36;95187.81;5051254;28;20476;-77
2022/10/19 08:54:52;;;;;;;16.73;11.40;;;;;;;17.95;40.76;95190.31;5053633;28;20449;-77
2022/10/19 08:57:32;;;;;;;24.03;12.40;;;;;;;17.80;40.52;95191.97;5053685;28;20448;-77
2022/10/19 09:00:06;;;;;;;16.03;11.97;;;;;;;17.77;40.65;95186.16;5053330;28;20433;-77
2022/10/19 09:02:46;;;;;;;17.63;13.67;;;;;;;17.70;41.40;95182.53;5053295;28;20448;-77
2022/10/19 09:05:23;;;;;;;22.53;12.13;;;;;;;17.86;41.94;95191.28;5053280;28;20812;-77
2022/10/19 09:07:53;;;;;;;24.17;15.87;;;;;;;17.88;41.50;95183.16;5053493;28;20437;-77
2022/10/19 09:10:24;;;;;;;19.83;13.97;;;;;;;17.83;41.52;95186.31;5053197;28;20485;-76
2022/10/19 09:12:56;;;;;;;15.93;11.50;;;;;;;17.78;42.36;95183.34;5053213;28;20481;-77
2022/10/19 09:15:27;;;;;;;19.50;11.30;;;;;;;17.83;42.70;95175.72;5053420;28;20855;-77
2022/10/19 09:17:55;;;;;;;14.33;9.93;;;;;;;17.84;41.90;95171.22;5003645;28;20446;-77
2022/10/19 09:20:29;;;;;;;14.03;9.60;;;;;;;17.88;42.17;95170.72;5053013;28;21024;-77
2022/10/19 09:23:04;;;;;;;21.13;10.10;;;;;;;18.00;42.26;95163.25;5053094;28;20437;-77
2022/10/19 09:25:35;;;;;;;13.50;8.37;;;;;;;18.04;42.03;95163.75;5111056;28;20475;-77
2022/10/19 09:28:12;;;;;;;8.00;6.33;;;;;;;18.01;42.03;95161.41;5116023;28;20449;-78
2022/10/19 09:30:42;;;;;;;11.43;7.80;;;;;;;18.11;42.44;95167.38;5115885;28;21043;-80
2022/10/19 09:33:17;;;;;;;19.57;7.37;;;;;;;18.19;42.09;95162.84;5115784;28;20450;-78
2022/10/19 09:35:46;;;;;;;9.63;6.43;;;;;;;18.22;41.94;95164.38;5115942;28;20913;-77
2022/10/19 09:38:16;;;;;;;8.40;5.53;;;;;;;18.31;42.21;95157.19;5115809;28;20431;-78
2022/10/19 09:40:44;;;;;;;7.97;5.90;;;;;;;18.26;42.12;95171.00;5115331;28;20479;-78
2022/10/19 09:43:20;;;;;;;8.70;5.27;;;;;;;18.29;42.72;95170.66;5115801;28;20932;-78
2022/10/19 09:45:51;;;;;;;6.73;5.67;;;;;;;18.29;42.45;95175.97;5115827;28;20469;-77
2022/10/19 09:48:27;;;;;;;10.30;5.93;;;;;;;18.34;42.67;95173.63;5115688;28;20446;-77
2022/10/19 09:50:57;;;;;;;7.70;5.60;;;;;;;18.25;42.64;95174.66;5096103;28;20478;-77
2022/10/19 09:53:25;;;;;;;8.73;5.53;;;;;;;18.31;43.45;95173.13;5115309;28;20473;-77
2022/10/19 09:55:59;;;;;;;8.20;5.30;;;;;;;18.44;43.09;95171.59;5115420;28;20539;-77
2022/10/19 09:58:27;;;;;;;11.80;5.70;;;;;;;18.55;43.08;95162.44;5096130;28;21048;-77
2022/10/19 10:00:55;;;;;;;8.37;6.30;;;;;;;18.57;43.12;95158.59;5115495;28;20439;-78
2022/10/19 10:03:27;;;;;;;6.57;5.40;;;;;;;18.61;41.51;95160.91;5078683;28;20426;-77
2022/10/19 10:05:56;;;;;;;9.93;5.20;;;;;;;18.66;41.01;95155.94;5115014;28;20443;-77
2022/10/19 10:08:26;;;;;;;6.03;5.00;;;;;;;18.60;40.84;95151.28;5115482;28;20538;-78
2022/10/19 10:10:59;;;;;;;9.07;4.40;;;;;;;18.52;40.48;95152.97;5114945;28;20999;-78
2022/10/19 10:13:27;;;;;;;13.10;5.60;;;;;;;18.41;40.64;95147.19;5104732;28;20455;-77
2022/10/19 10:15:57;;;;;;;6.90;4.80;;;;;;;18.45;41.83;95149.31;5096673;28;20492;-79
2022/10/19 10:18:28;;;;;;;6.97;5.27;;;;;;;18.45;41.63;95149.31;5076927;28;20432;-80
2022/10/19 10:21:04;;;;;;;7.60;4.97;;;;;;;18.43;41.69;95139.88;5095753;28;20455;-77
2022/10/19 10:23:35;;;;;;;5.33;4.80;;;;;;;18.45;41.71;95133.38;5095030;28;20446;-78
2022/10/19 10:26:03;;;;;;;8.07;4.57;;;;;;;18.51;41.35;95123.91;5103105;28;20453;-78
2022/10/19 10:28:31;;;;;;;4.67;4.23;;;;;;;18.55;40.38;95114.59;5118011;28;20447;-78
2022/10/19 10:31:02;;;;;;;11.60;5.20;;;;;;;18.59;40.94;95113.25;5099533;28;20847;-77
2022/10/19 10:33:32;;;;;;;9.17;4.57;;;;;;;18.61;40.71;95110.41;5113406;28;20455;-77
2022/10/19 10:36:03;;;;;;;8.90;5.27;;;;;;;18.72;40.66;95102.06;5079359;28;20451;-78
2022/10/19 10:38:33;;;;;;;12.90;4.63;;;;;;;18.92;41.10;95100.63;5115169;28;20975;-77
2022/10/19 10:41:03;;;;;;;8.90;4.77;;;;;;;18.99;39.61;95095.41;5115006;28;20817;-77
2022/10/19 10:43:32;;;;;;;5.50;4.87;;;;;;;19.06;39.88;95088.38;5115146;28;20530;-77
2022/10/19 10:46:03;;;;;;;5.53;4.97;;;;;;;19.10;39.50;95089.72;5114966;28;20442;-78
2022/10/19 10:48:36;;;;;;;6.17;4.57;;;;;;;19.18;40.59;95090.47;5114396;28;20446;-78
2022/10/19 10:51:03;;;;;;;7.80;5.20;;;;;;;19.27;46.55;95079.75;5113880;28;20491;-78
2022/10/19 10:53:36;;;;;;;6.80;4.95;;;;;;;19.57;39.92;95081.53;5114230;28;20446;-79
2022/10/19 10:56:04;;;;;;;8.77;5.27;;;;;;;19.72;42.75;95074.41;5100142;28;20210;-79
2022/10/19 10:58:38;;;;;;;7.30;4.60;;;;;;;19.77;38.94;95068.53;5094773;28;20476;-79
2022/10/19 11:01:12;;;;;;;5.43;4.70;;;;;;;20.00;39.22;95055.97;5094744;28;20443;-78
2022/10/19 11:03:48;;;;;;;5.67;4.90;;;;;;;20.13;39.01;95057.97;5099683;28;20913;-78
2022/10/19 11:06:18;;;;;;;9.57;4.40;;;;;;;20.19;37.46;95048.41;5106380;28;20444;-79
2022/10/19 11:08:50;;;;;;;5.00;4.53;;;;;;;20.14;36.33;95046.28;5042646;28;20468;-78
2022/10/19 11:11:21;;;;;;;5.70;5.07;;;;;;;20.12;37.17;95045.66;5094171;28;20484;-78
2022/10/19 11:13:52;;;;;;;9.83;4.97;;;;;;;20.03;36.51;95039.59;5098974;28;20459;-77
2022/10/19 11:16:24;;;;;;;50.07;31.00;;;;;;;19.95;35.08;95036.19;5094058;28;20451;-78
2022/10/19 11:18:59;;;;;;;38.13;24.80;;;;;;;19.94;35.60;95034.53;5094500;28;20526;-78
2022/10/19 11:21:31;;;;;;;18.73;14.20;;;;;;;19.92;36.14;95032.06;5094015;28;20459;-78
2022/10/19 11:24:12;;;;;;;4.30;3.90;;;;;;;19.91;34.88;95024.25;5094396;28;20446;-78
2022/10/19 11:26:50;;;;;;;10.23;5.17;;;;;;;19.86;35.30;95030.13;5094071;28;20439;-78
2022/10/19 11:29:30;;;;;;;92.90;42.27;;;;;;;19.79;34.81;95027.38;5094003;28;20448;-78
2022/10/19 11:31:57;;;;;;;20.67;12.63;;;;;;;19.73;35.67;95021.97;5093815;28;20487;-77
2022/10/19 11:34:56;;;;;;;19.10;7.37;;;;;;;19.73;36.89;95009.47;5093671;28;20489;-77
2022/10/19 11:37:30;;;;;;;93.30;34.33;;;;;;;19.79;35.96;95018.56;5011779;28;20444;-78
2022/10/19 11:40:11;;;;;;;72.53;28.43;;;;;;;19.84;34.59;95016.19;5011616;28;20510;-78